Terminal Aerodrome Forecast
Issued by NWS

Home | Current Version | Previous Version | Text Only | Print | Product List | Glossary On
Versions: 1 2 3 4 5 6 7 8 9 10 11 12 13 14 15 16 17 18 19 20 21 22
414
FTUS46 KSEW 221700
TAFOLM
TAF
KOLM 221738Z 2218/2318 22009KT P6SM VCSH OVC020
      TEMPO 2218/2220 -SHRA
     FM222000 22009KT P6SM -SHRA OVC028
     FM222200 24009KT P6SM -SHRA BKN035 OVC060
     FM230300 21006KT P6SM SCT035 BKN060 BKN110
     FM230600 19004KT P6SM OVC025
     FM230900 19004KT P6SM OVC018=

USA.gov is the U.S. government's official web portal to all federal, state and local government web resources and services.